ADDS METAR Data INFO
IDs: Format: Raw Decoded Include TAF

Data at: 1312 UTC 11 Dec 2017

KWVL 111256Z AUTO 00000KT 10SM OVC090 M06/M07 A2984 RMK AO2 SLP138 T10611067 FZRANO
KWVL 111156Z AUTO 00000KT 10SM OVC090 M07/M08 A2983 RMK AO2 SLP137 70002 T10721083 11061 21078 53007 FZRANO
KWVL 111056Z AUTO 00000KT 10SM SCT095 M08/M09 A2983 RMK AO2 SLP133 T10781089 FZRANO
KWVL 110956Z AUTO 00000KT 10SM CLR M07/M08 A2981 RMK AO2 SLP129 T10721083 FZRANO
KWVL 110856Z AUTO 21003KT 10SM SCT100 M07/M08 A2981 RMK AO2 SLP129 T10721083 58001 FZRANO
KWVL 110756Z AUTO 19003KT 10SM SCT100 M07/M08 A2981 RMK AO2 SLP129 T10671078 FZRANO
KWVL 110656Z AUTO 18003KT 10SM SCT100 M07/M08 A2982 RMK AO2 SLP130 T10671078 FZRANO
KWVL 110556Z AUTO 20005KT 10SM CLR M07/M08 A2982 RMK AO2 SLP130 T10671078 11022 21083 51003 FZRANO
KWVL 110456Z AUTO 21003KT 10SM CLR M08/M09 A2981 RMK AO2 SLP129 T10781089 400221083 FZRANO
KWVL 110356Z AUTO 00000KT 10SM CLR M08/M09 A2981 RMK AO2 SLP129 T10781094 FZRANO
KWVL 110256Z AUTO 00000KT 10SM CLR M06/M08 A2981 RMK AO2 SLP126 T10561078 51012 FZRANO
KWVL 110156Z AUTO 26004KT 10SM CLR M06/M08 A2980 RMK AO2 SLP124 T10561078 FZRANO
KWVL 110056Z AUTO 00000KT 10SM CLR M03/M06 A2980 RMK AO2 SLP123 T10331061 FZRANO
KWVL 102356Z AUTO 00000KT 10SM CLR M03/M06 A2977 RMK AO2 SLP115 60001 T10331061 10022 21033 53031 FZRANO
KWVL 102256Z AUTO 25007KT 10SM CLR M01/M07 A2974 RMK AO2 SLP103 T10111067 FZRANO
KWVL 102156Z AUTO 22004KT 10SM CLR M02/M05 A2971 RMK AO2 SLP092 T10221050 FZRANO
KWVL 102056Z AUTO 21004KT 10SM CLR M01/M06 A2968 RMK AO2 SLP083 60001 T10061056 53024 FZRANO
KWVL 101956Z AUTO 24006KT 10SM OVC050 01/M06 A2966 RMK AO2 SLP075 T00111056 FZRANO
KWVL 101856Z AUTO 29005KT 10SM FEW039 02/M05 A2962 RMK AO2 SLPNO P0001 T00171050 FZRANO
KWVL 101756Z AUTO 25009KT 10SM CLR 01/M04 A2961 RMK AO2 SLP059 P0001 60001 T00111044 10017 21039 55002 FZRANO
KWVL 101656Z AUTO 23004KT 10SM CLR 01/M04 A2961 RMK AO2 SLP057 T00111044 FZRANO
KWVL 101556Z AUTO 23007KT 10SM BKN065 00/M04 A2961 RMK AO2 SLP058 T00001044 FZRANO
KWVL 101456Z AUTO 25005KT 10SM SCT080 M01/M04 A2962 RMK AO2 SLP061 T10061039 53023 FZRANO
KWVL 101356Z AUTO 28003KT 10SM CLR 00/M04 A2958 RMK AO2 SLP049 T00001039 FZRANO
KWVL 101256Z AUTO 30005KT 10SM SCT060 M03/M06 A2957 RMK AO2 SLP047 T10331056 FZRANO
KWVL 101156Z AUTO 32005KT 10SM FEW045 OVC055 M03/M05 A2955 RMK AO2 SNE05 SLP036 P0000 60000 T10281050 11022 21028 51016 FZRANO
KWVL 101056Z AUTO 33009KT 9SM -SN OVC095 M02/M04 A2953 RMK AO2 SLP031 P0000 T10221039 FZRANO
KWVL 100956Z AUTO 32009G16KT 10SM -SN FEW055 OVC095 M02/M04 A2952 RMK AO2 SNE11B53 SLP027 P0000 T10221039 FZRANO
KWVL 100856Z AUTO 33009KT 9SM -SN FEW100 M02/M03 A2950 RMK AO2 SLP021 P0000 60000 T10221033 56018 FZRANO
KWVL 100843Z AUTO 33009KT 9SM -SN SCT025 M02/M03 A2950 RMK AO2 P0000 FZRANO
KWVL 100827Z AUTO 34008KT 4SM -SN BR SCT018 SCT022 BKN027 M02/M03 A2950 RMK AO2 P0000 FZRANO
KWVL 100820Z AUTO 33010KT 2 1/2SM -SN BR BKN018 OVC025 M02/M03 A2950 RMK AO2 P0000 FZRANO
KWVL 100809Z AUTO 33008KT 1 3/4SM -SN BR OVC018 M02/M03 A2951 RMK AO2 P0000 FZRANO
KWVL 100756Z AUTO 33007KT 2SM -SN BR OVC020 M02/M03 A2952 RMK AO2 SLP028 P0000 T10221033 FZRANO
KWVL 100746Z AUTO 33006KT 2 1/2SM -SN BR BKN020 OVC026 M02/M03 A2953 RMK AO2 VIS 1 1/2V3 P0000 FZRANO
KWVL 100726Z AUTO 33008KT 4SM -SN BR BKN018 BKN026 OVC031 M02/M03 A2953 RMK AO2 P0000 FZRANO
KWVL 100656Z AUTO 36006KT 2SM -SN BKN018 OVC024 A2953 RMK AO2 VIS 1 1/2V3 SLPNO P0000 FZRANO
KWVL 100606Z AUTO 35008KT 2 1/2SM -SN BR BKN022 OVC027 M02/M03 A2955 RMK AO2 VIS 2V3 P0000 FZRANO
KWVL 100556Z AUTO 35008KT 3SM -SN BR OVC026 M02/M03 A2956 RMK AO2 SLP040 P0000 60000 T10221033 11022 21022 56022 FZRANO
KWVL 100512Z AUTO 36008KT 3SM -SN BR FEW008 BKN016 OVC024 M02/M03 A2957 RMK AO2 P0000 FZRANO
KWVL 100458Z AUTO 01009KT 2SM -SN BR FEW006 OVC016 M02/M03 A2957 RMK AO2 P0000 FZRANO
KWVL 100456Z AUTO 01010KT 1 3/4SM -SN BR FEW006 OVC014 M02/M03 A2956 RMK AO2 SLP042 P0000 T10221033 400001033 FZRANO
KWVL 100432Z AUTO 01011KT 1 1/2SM -SN BR FEW008 BKN014 OVC023 M02/M03 A2957 RMK AO2 PRESFR P0000 FZRANO
KWVL 100404Z AUTO 01008KT 2SM -SN BR FEW008 OVC016 M02/M03 A2960 RMK AO2 P0000 FZRANO
KWVL 100356Z AUTO 01008KT 1 3/4SM -SN BR FEW008 OVC014 M02/M03 A2960 RMK AO2 SLP056 P0000 T10221033 FZRANO
KWVL 100349Z AUTO 01008KT 1 3/4SM -SN BR SCT008 OVC014 M02/M03 A2961 RMK AO2 P0000 FZRANO
KWVL 100336Z AUTO 01010KT 1 1/2SM -SN BR BKN008 BKN014 OVC025 M02/M03 A2961 RMK AO2 CIG 005V009 P0000 FZRANO
KWVL 100315Z AUTO 02010KT 2 1/2SM -SN BR BKN008 BKN015 OVC025 M02/M03 A2962 RMK AO2 CIG 005V011 P0000 FZRANO
KWVL 100256Z AUTO 36010KT 1 1/2SM -SN BR BKN008 OVC013 M02/M03 A2962 RMK AO2 SLP062 P0000 60000 T10221033 56031 FZRANO
KWVL 100252Z AUTO 01009KT 1 1/2SM -SN BR BKN008 OVC013 M02/M03 A2963 RMK AO2 P0000 FZRANO
KWVL 100231Z AUTO 01010KT 1 1/4SM -SN BR FEW008 OVC013 M02/M03 A2963 RMK AO2 PRESFR P0000 FZRANO
KWVL 100219Z AUTO 01009KT 1 1/2SM -SN BR BKN008 OVC013 M02/M03 A2966 RMK AO2 CIG 005V011 P0000 FZRANO
KWVL 100211Z AUTO 01009KT 1SM -SN BR BKN008 OVC013 M02/M03 A2966 RMK AO2 CIG 005V010 PRESFR P0000 FZRANO
KWVL 100156Z AUTO 02009KT 3/4SM -SN BR BKN008 OVC013 M02/M03 A2969 RMK AO2 CIG 005V010 SLP085 P0000 T10221033 FZRANO
KWVL 100151Z AUTO 02008KT 1SM -SN BR BKN006 OVC013 M02/M03 A2969 RMK AO2 CIG 005V010 P0000 FZRANO
KWVL 100139Z AUTO 02010KT 1 1/4SM -SN BR FEW006 BKN010 OVC015 M02/M03 A2966 RMK AO2 PRESFR P0000 FZRANO
KWVL 100126Z AUTO 01008KT 1SM -SN BR OVC008 M02/M03 A2970 RMK AO2 CIG 005V011 P0000 FZRANO